Park, Indiana
Current Conditions -  °F | °C
As of 10:53 AM on Thursday 29 Jan 2015 (Local Time) from KBMG Reporting Station
Overcast Overcast  
Wind Chill: 34°   Ceiling: 1700
Heat Index: 42°   Visibility: 8mi
Dew Point: 36°   Wind: 18mph
Humidity: 79%   Direction: 280°W
Pressure: 29.88"   Gusts: 32mph
Location:  39.0306°N, 86.8553°W
Report Text: KBMG 291553Z 28016G28KT 8SM OVC017 06/02 A2988 RMK AO2 PK WND 27030/1517 SLP123 T00560022
Loading
Personal Weather Stations






























Interactive Weather Map New forecast layout! Learn more

10-Day Weather Forecast

Advertisements
Track Severe Weather on mobile